Aeroporto :
LOGIN :

Iscrizione | Disclaimer

   EN    FR    IT 

 










Sommario :    VFR   VFR Marginale   IFR   IFR Intensivo   IFR Molto Intensivo
Visibilità : 
Base nubi : 
>= 8 km
>= 3000ft
5 / 8 km
1000 / 3000 ft
1500m / 5 km
500 / 1000 ft
800 / 1500m
200 / 500 ft
< 800m
< 200 ft
Simboli :   Temporali  Nebbia  Neve Forte  Precipitazioni Forti  Vento > 20 kt
SIGMETs :   Varie  Temporali  Ghiacco  Turbolenza  Onda orograficha  Ceneri Vulcaniche







- Altitudine del aeroporto : 306 ft
- Codice IATA : EMA
- Carte del aeroporto


EGNX - Nottingham East Midlands

ULTIMO METAR :
  • 221520Z 21009KT 9999 FEW014 SCT043 11/09 Q1016

METARs OBSOLETI :
  • 221450Z 22006KT 9999 FEW017 11/08 Q1016
  • 221420Z 23008KT 9999 -RA FEW043 11/08 Q1016
  • 221320Z 23010KT 9999 FEW043 11/08 Q1017
  • 221250Z 23010KT 9999 -RA SCT017 BKN028 11/09 Q1017 RERA
  • 221220Z 19007KT 8000 RA BKN015 BKN030 11/09 Q1017

TAF TAF EGNX
Valido dal 22 a 12 ore il 23 a 12 ore UTC


221056Z 2212/2312 22010KT 9999 SCT030
BECMG 2212/2215 VRB03KT
TEMPO 2212/2222 8000 -RA
PROB30
TEMPO 2212/2219 RA BKN014
PROB30
TEMPO 2308/2310 8000 -RA
BECMG 2309/2312 33012KT
ATIS : +44 1332 852 852 (ext 3201)
Nessun NOTAM noto per questo aeroporto.
1 SIGMET conosciuto per la FIR London (EGTT) :
 
Forte formazione di ghiaccio
EGTT SIGMET 06 VALID 221400/221800 EGRR
EGTT LONDON FIR SEV ICE FCST WI N5100 E00128 - N5040 E00128 - N5011 E00014 - N5155 W00407 - N5245 W00251 - N5102 E00139 - N5100 E00128 FL060/150 MOV E 25KT NC=



MetMap, La meteo Aeronautica in un colpo d'occhio ! - Copyright ORBIFLY Dicembre 2007 - Disclaimer

ORBIFLY MET'MAP TEAM :

Programmazione e sviluppo : Alexandra Zaïnal
Concezione e sviluppo : Baudouin d'Aumeries
Co-Programmazione e sviluppo : Marc-Olivier Méhu
Supporto tecnico e logistico : Manuel Goepfert
Aiuto per la traduzione : Arnaldo La Scala

Contatto : metmap@orbifly.com




FONTI E CREDITI :

   NOAA